San Martin, California
Current Conditions -  °F | °C
As of 6:15 AM on Monday 20 Oct 2014 (Local Time) from KE16 Reporting Station
Overcast Overcast  
Wind Chill: 59°   Ceiling: 1700
Heat Index: 59°   Visibility: 10mi
Dew Point: 59°   Wind: 3mph
Humidity: 100%   Direction: 140°SE
Pressure: 29.96"   Gusts: NA
Location:  37.08°N, 121.61°W
Report Text: KE16 201315Z AUTO 14003KT 10SM SCT006 OVC017 15/15 A2996 RMK AO2
Loading
Personal Weather Stations






























Interactive Weather Map
Tropical Storm Tracking
New forecast layout! Learn more

10-Day Weather Forecast

Advertisements
Track Severe Weather on mobile